createdAt,value
2023-05-07T00:00:27.603Z,6.20
2023-05-07T00:01:27.597Z,6.60
2023-05-07T00:02:27.660Z,6.60
2023-05-07T00:03:27.772Z,8.40
2023-05-07T00:04:27.604Z,6.80
2023-05-07T00:05:27.555Z,8.70
2023-05-07T00:06:27.612Z,7.10
2023-05-07T00:07:27.519Z,8.70
2023-05-07T00:08:27.542Z,9.00
2023-05-07T00:09:27.504Z,7.20
2023-05-07T00:10:27.520Z,7.20
2023-05-07T00:11:27.480Z,7.40
2023-05-07T00:12:27.475Z,7.50
2023-05-07T00:13:27.551Z,8.10
2023-05-07T00:14:27.451Z,7.60
2023-05-07T00:15:27.456Z,7.30
2023-05-07T00:16:27.447Z,8.70
2023-05-07T00:17:27.420Z,9.80
2023-05-07T00:18:27.407Z,8.10
2023-05-07T00:19:27.400Z,8.00
2023-05-07T00:20:27.395Z,8.80
2023-05-07T00:21:27.370Z,8.00
2023-05-07T00:22:27.407Z,8.20
2023-05-07T00:23:27.353Z,7.40
2023-05-07T00:24:27.348Z,8.20
2023-05-07T00:25:27.329Z,8.40
2023-05-07T00:26:27.315Z,8.00
2023-05-07T00:27:27.312Z,8.60
2023-05-07T00:28:27.309Z,9.10
2023-05-07T00:29:27.287Z,9.30
2023-05-07T00:30:27.274Z,8.50
2023-05-07T00:31:27.339Z,9.00
2023-05-07T00:32:27.274Z,11.00
2023-05-07T00:33:27.243Z,10.40
2023-05-07T00:34:27.238Z,10.60
2023-05-07T00:35:27.217Z,9.40
2023-05-07T00:36:27.209Z,9.90
2023-05-07T00:37:27.200Z,10.50
2023-05-07T00:38:27.195Z,10.20
2023-05-07T00:39:27.182Z,9.20
2023-05-07T00:40:27.161Z,9.60
2023-05-07T00:41:27.162Z,11.00
2023-05-07T00:42:27.139Z,9.90
2023-05-07T00:43:27.138Z,11.60
2023-05-07T00:44:27.113Z,13.30
2023-05-07T00:45:27.112Z,11.70
2023-05-07T00:46:27.382Z,11.20
2023-05-07T00:47:27.094Z,14.20
2023-05-07T00:48:27.080Z,11.50
2023-05-07T00:49:27.062Z,11.60
2023-05-07T00:50:27.047Z,13.80
2023-05-07T00:51:27.046Z,12.10
2023-05-07T00:52:27.035Z,11.80
2023-05-07T00:53:27.028Z,12.40
2023-05-07T00:54:27.008Z,12.20
2023-05-07T00:55:27.012Z,13.70
2023-05-07T00:56:26.984Z,13.10
2023-05-07T00:57:26.991Z,13.10
2023-05-07T00:58:26.961Z,14.40
2023-05-07T00:59:26.990Z,14.20
2023-05-07T01:00:26.965Z,13.50
2023-05-07T01:01:26.965Z,14.80
2023-05-07T01:02:26.956Z,15.70
2023-05-07T01:03:26.915Z,13.50
2023-05-07T01:04:26.934Z,14.20
2023-05-07T01:05:26.898Z,13.90
2023-05-07T01:06:26.879Z,15.20
2023-05-07T01:07:26.893Z,14.90
2023-05-07T01:08:26.892Z,16.50
2023-05-07T01:09:26.853Z,14.20
2023-05-07T01:10:26.826Z,14.10
2023-05-07T01:11:26.837Z,15.80
2023-05-07T01:12:26.817Z,17.30
2023-05-07T01:13:26.857Z,15.60
2023-05-07T01:14:26.810Z,16.20
2023-05-07T01:15:26.787Z,16.20
2023-05-07T01:16:26.797Z,15.80
2023-05-07T01:17:26.796Z,16.70
2023-05-07T01:18:26.736Z,14.70
2023-05-07T01:19:26.736Z,17.50
2023-05-07T01:20:26.719Z,16.80
2023-05-07T01:21:26.720Z,15.80
2023-05-07T01:22:26.697Z,17.30
2023-05-07T01:23:26.691Z,17.70
2023-05-07T01:24:26.679Z,16.30
2023-05-07T01:25:26.683Z,17.10
2023-05-07T01:26:26.663Z,16.40
2023-05-07T01:27:26.644Z,17.90
2023-05-07T01:28:26.628Z,17.40
2023-05-07T01:29:26.620Z,17.40
2023-05-07T01:30:26.617Z,16.50
2023-05-07T01:31:26.623Z,16.90
2023-05-07T01:32:26.615Z,18.40
2023-05-07T01:33:26.591Z,17.50
2023-05-07T01:34:26.565Z,18.40
2023-05-07T01:35:26.571Z,18.20
2023-05-07T01:36:26.533Z,20.70
2023-05-07T01:37:26.534Z,18.60
2023-05-07T01:38:26.529Z,20.00
2023-05-07T01:39:26.522Z,17.90
2023-05-07T01:40:26.503Z,18.90
2023-05-07T01:41:26.487Z,21.10
2023-05-07T01:42:26.470Z,20.30
2023-05-07T01:43:26.526Z,19.70
2023-05-07T01:44:26.455Z,21.20
2023-05-07T01:45:26.448Z,21.10
2023-05-07T01:46:26.449Z,19.20
2023-05-07T01:47:26.463Z,19.00
2023-05-07T01:48:26.435Z,21.00
2023-05-07T01:49:26.400Z,20.40
2023-05-07T01:50:26.383Z,22.20
2023-05-07T01:51:26.372Z,21.00
2023-05-07T01:52:26.371Z,19.10
2023-05-07T01:53:26.361Z,21.60
2023-05-07T01:54:26.344Z,19.20
2023-05-07T01:55:26.333Z,22.90
2023-05-07T01:56:26.317Z,22.50
2023-05-07T01:57:26.316Z,21.00
2023-05-07T01:58:26.303Z,24.20
2023-05-07T01:59:26.283Z,19.50
2023-05-07T02:00:26.268Z,19.60
2023-05-07T02:01:26.264Z,21.80
2023-05-07T02:02:26.313Z,20.70
2023-05-07T02:03:26.428Z,19.10
2023-05-07T02:04:26.219Z,20.80
2023-05-07T02:05:26.212Z,21.30
2023-05-07T02:06:26.198Z,23.00
2023-05-07T02:07:26.207Z,19.90
2023-05-07T02:08:26.185Z,19.30
2023-05-07T02:09:26.168Z,21.50
2023-05-07T02:10:26.153Z,20.30
2023-05-07T02:11:26.174Z,20.60
2023-05-07T02:12:26.144Z,21.60
2023-05-07T02:13:26.128Z,21.20
2023-05-07T02:14:26.110Z,22.10
2023-05-07T02:15:26.108Z,21.40
2023-05-07T02:16:26.948Z,24.00
2023-05-07T02:17:26.115Z,21.40
2023-05-07T02:18:26.070Z,19.00
2023-05-07T02:19:26.061Z,22.20
2023-05-07T02:20:26.044Z,22.10
2023-05-07T02:21:26.049Z,20.00
2023-05-07T02:22:26.051Z,20.90
2023-05-07T02:23:26.021Z,21.70
2023-05-07T02:24:26.007Z,22.00
2023-05-07T02:25:26.019Z,22.50
2023-05-07T02:26:25.989Z,22.30
2023-05-07T02:27:25.972Z,19.00
2023-05-07T02:28:25.959Z,20.70
2023-05-07T02:29:26.444Z,21.90
2023-05-07T02:30:26.016Z,22.90
2023-05-07T02:31:25.954Z,18.70
2023-05-07T02:32:25.960Z,20.50
2023-05-07T02:33:25.910Z,19.00
2023-05-07T02:34:25.895Z,20.30
2023-05-07T02:35:25.894Z,20.30
2023-05-07T02:36:25.881Z,20.50
2023-05-07T02:37:25.862Z,23.00
2023-05-07T02:38:25.846Z,18.70
2023-05-07T02:39:25.840Z,19.70
2023-05-07T02:40:25.847Z,20.90
2023-05-07T02:41:25.817Z,19.80
2023-05-07T02:42:25.796Z,21.20
2023-05-07T02:43:25.793Z,19.90
2023-05-07T02:44:25.784Z,21.90
2023-05-07T02:45:25.783Z,19.80
2023-05-07T02:46:25.845Z,19.10
2023-05-07T02:47:25.758Z,20.60
2023-05-07T02:48:25.733Z,23.90
2023-05-07T02:49:25.738Z,19.40
2023-05-07T02:50:25.720Z,20.80
2023-05-07T02:51:26.224Z,19.30
2023-05-07T02:52:25.690Z,20.10
2023-05-07T02:53:25.680Z,21.50
2023-05-07T02:54:25.672Z,21.10
2023-05-07T02:55:25.661Z,20.10
2023-05-07T02:56:25.647Z,19.80
2023-05-07T02:57:25.637Z,19.90
2023-05-07T02:58:25.621Z,19.60
2023-05-07T02:59:25.625Z,19.60
2023-05-07T03:00:25.597Z,22.80
2023-05-07T03:01:25.625Z,20.10
2023-05-07T03:02:25.583Z,20.60
2023-05-07T03:03:25.575Z,18.70
2023-05-07T03:04:25.604Z,20.20
2023-05-07T03:05:25.545Z,19.90
2023-05-07T03:06:25.537Z,21.20
2023-05-07T03:07:25.518Z,21.00
2023-05-07T03:08:25.527Z,21.90
2023-05-07T03:09:25.510Z,19.60
2023-05-07T03:10:25.492Z,20.70
2023-05-07T03:11:25.474Z,22.10
2023-05-07T03:12:25.470Z,20.60
2023-05-07T03:13:25.554Z,19.60
2023-05-07T03:14:25.440Z,20.60
2023-05-07T03:15:25.431Z,20.90
2023-05-07T03:16:25.530Z,19.30
2023-05-07T03:17:25.514Z,22.40
2023-05-07T03:18:25.434Z,19.10
2023-05-07T03:19:25.387Z,21.50
2023-05-07T03:20:25.414Z,20.40
2023-05-07T03:21:25.375Z,20.90
2023-05-07T03:22:25.389Z,21.30
2023-05-07T03:23:25.388Z,19.90
2023-05-07T03:24:25.333Z,21.00
2023-05-07T03:25:25.317Z,21.10
2023-05-07T03:26:25.307Z,18.90
2023-05-07T03:27:25.296Z,20.30
2023-05-07T03:28:25.290Z,19.90
2023-05-07T03:29:25.270Z,19.50
2023-05-07T03:30:25.273Z,23.10
2023-05-07T03:31:25.283Z,20.00
2023-05-07T03:32:25.256Z,19.80
2023-05-07T03:33:25.230Z,22.50
2023-05-07T03:34:25.215Z,23.10
2023-05-07T03:35:25.237Z,23.10
2023-05-07T03:36:25.205Z,20.70
2023-05-07T03:37:25.184Z,20.80
2023-05-07T03:38:25.168Z,21.10
2023-05-07T03:39:25.161Z,21.30
2023-05-07T03:40:25.145Z,20.70
2023-05-07T03:41:25.149Z,24.00
2023-05-07T03:42:25.121Z,20.30
2023-05-07T03:43:25.115Z,20.00
2023-05-07T03:44:25.100Z,20.70
2023-05-07T03:45:25.104Z,23.20
2023-05-07T03:46:25.138Z,21.10
2023-05-07T03:47:25.078Z,21.60
2023-05-07T03:48:25.053Z,22.70
2023-05-07T03:49:25.056Z,22.00
2023-05-07T03:50:25.041Z,21.70
2023-05-07T03:51:25.029Z,22.60
2023-05-07T03:52:25.014Z,19.80
2023-05-07T03:53:25.006Z,21.70
2023-05-07T03:54:24.998Z,21.30
2023-05-07T03:55:24.991Z,21.40
2023-05-07T03:56:24.970Z,23.20
2023-05-07T03:57:24.964Z,21.90
2023-05-07T03:58:24.950Z,21.90
2023-05-07T03:59:24.947Z,21.20
2023-05-07T04:00:24.950Z,24.30
2023-05-07T04:01:24.919Z,21.50
2023-05-07T04:02:25.075Z,20.50
2023-05-07T04:03:24.978Z,22.60
2023-05-07T04:04:24.920Z,22.70
2023-05-07T04:05:24.927Z,19.70
2023-05-07T04:06:24.853Z,21.40
2023-05-07T04:07:24.890Z,20.20
2023-05-07T04:08:24.831Z,21.40
2023-05-07T04:09:24.838Z,22.30
2023-05-07T04:10:24.855Z,22.60
2023-05-07T04:11:24.809Z,20.20
2023-05-07T04:12:24.819Z,22.80
2023-05-07T04:13:24.857Z,22.30
2023-05-07T04:14:24.788Z,25.00
2023-05-07T04:15:24.764Z,22.80
2023-05-07T04:16:24.776Z,24.40
2023-05-07T04:17:24.821Z,21.00
2023-05-07T04:18:24.741Z,23.70
2023-05-07T04:19:24.722Z,24.00
2023-05-07T04:20:24.703Z,20.90
2023-05-07T04:21:24.701Z,23.50
2023-05-07T04:22:24.682Z,23.00
2023-05-07T04:23:24.699Z,23.00
2023-05-07T04:24:24.661Z,22.90
2023-05-07T04:25:24.656Z,22.50
2023-05-07T04:26:24.642Z,22.40
2023-05-07T04:27:24.640Z,24.90
2023-05-07T04:28:24.631Z,23.90
2023-05-07T04:29:24.613Z,24.10
2023-05-07T04:30:24.599Z,21.10
2023-05-07T04:31:24.598Z,21.90
2023-05-07T04:32:24.581Z,22.10
2023-05-07T04:33:24.566Z,23.90
2023-05-07T04:34:24.552Z,22.80
2023-05-07T04:35:24.549Z,23.40
2023-05-07T04:36:24.534Z,24.40
2023-05-07T04:37:24.529Z,23.40
2023-05-07T04:38:24.515Z,22.80
2023-05-07T04:39:24.513Z,23.20
2023-05-07T04:40:24.485Z,22.90
2023-05-07T04:41:24.519Z,23.30
2023-05-07T04:42:24.472Z,23.30
2023-05-07T04:43:24.455Z,22.20
2023-05-07T04:44:24.440Z,23.40
2023-05-07T04:45:24.434Z,22.20
2023-05-07T04:46:24.493Z,23.00
2023-05-07T04:47:24.474Z,22.80
2023-05-07T04:48:24.414Z,23.80
2023-05-07T04:49:24.412Z,22.60
2023-05-07T04:50:24.397Z,22.80
2023-05-07T04:51:24.382Z,22.20
2023-05-07T04:52:26.004Z,24.00
2023-05-07T04:53:24.346Z,24.00
2023-05-07T04:54:24.330Z,23.60
2023-05-07T04:55:24.333Z,21.50
2023-05-07T04:56:24.318Z,23.00
2023-05-07T04:57:24.302Z,21.00
2023-05-07T04:58:24.324Z,27.50
2023-05-07T04:59:24.282Z,22.50
2023-05-07T05:00:24.270Z,20.50
2023-05-07T05:01:24.365Z,22.70
2023-05-07T05:02:24.261Z,25.60
2023-05-07T05:03:24.303Z,21.60
2023-05-07T05:04:24.243Z,22.60
2023-05-07T05:05:24.262Z,21.80
2023-05-07T05:06:24.198Z,21.20
2023-05-07T05:07:24.217Z,21.10
2023-05-07T05:08:24.184Z,22.70
2023-05-07T05:09:24.169Z,24.40
2023-05-07T05:10:24.726Z,22.00
2023-05-07T05:11:24.154Z,21.30
2023-05-07T05:12:24.160Z,23.10
2023-05-07T05:13:24.156Z,22.50
2023-05-07T05:14:24.123Z,23.90
2023-05-07T05:15:24.136Z,22.00
2023-05-07T05:16:24.117Z,22.80
2023-05-07T05:17:24.104Z,24.50
2023-05-07T05:18:24.069Z,22.90
2023-05-07T05:19:24.111Z,22.50
2023-05-07T05:20:24.059Z,24.60
2023-05-07T05:21:24.045Z,23.70
2023-05-07T05:22:24.028Z,20.90
2023-05-07T05:23:24.036Z,22.80
2023-05-07T05:24:24.015Z,23.80
2023-05-07T05:25:23.996Z,20.80
2023-05-07T05:26:23.981Z,21.60
2023-05-07T05:27:23.972Z,20.50
2023-05-07T05:28:23.960Z,22.40
2023-05-07T05:29:23.967Z,20.50
2023-05-07T05:30:23.937Z,22.30
2023-05-07T05:31:23.977Z,21.80
2023-05-07T05:32:23.935Z,23.60
2023-05-07T05:33:23.923Z,22.00
2023-05-07T05:34:23.927Z,22.20
2023-05-07T05:35:23.883Z,20.70
2023-05-07T05:36:23.874Z,22.30
2023-05-07T05:37:23.863Z,21.80
2023-05-07T05:38:23.864Z,23.00
2023-05-07T05:39:23.841Z,21.60
2023-05-07T05:40:23.832Z,21.30
2023-05-07T05:41:23.831Z,21.70
2023-05-07T05:42:23.802Z,20.50
2023-05-07T05:43:23.807Z,19.90
2023-05-07T05:44:23.778Z,22.00
2023-05-07T05:45:23.777Z,22.90
2023-05-07T05:46:23.812Z,21.90
2023-05-07T05:47:23.749Z,21.30
2023-05-07T05:48:23.741Z,21.70
2023-05-07T05:49:23.730Z,21.70
2023-05-07T05:50:23.714Z,22.40
2023-05-07T05:51:23.708Z,22.00
2023-05-07T05:52:23.700Z,23.30
2023-05-07T05:53:23.694Z,21.90
2023-05-07T05:54:23.669Z,21.50
2023-05-07T05:55:23.677Z,23.00
2023-05-07T05:56:23.650Z,20.60
2023-05-07T05:57:23.651Z,20.50
2023-05-07T05:58:23.623Z,20.40
2023-05-07T05:59:23.653Z,20.70
2023-05-07T06:00:23.668Z,20.00
2023-05-07T06:01:23.611Z,19.50
2023-05-07T06:02:23.686Z,20.70
2023-05-07T06:03:23.616Z,23.70
2023-05-07T06:04:23.562Z,22.20
2023-05-07T06:05:23.583Z,21.60
2023-05-07T06:06:23.546Z,25.00
2023-05-07T06:07:23.534Z,20.90
2023-05-07T06:08:23.511Z,21.60
2023-05-07T06:09:23.503Z,22.10
2023-05-07T06:10:23.493Z,21.00
2023-05-07T06:11:23.495Z,21.10
2023-05-07T06:12:23.469Z,23.20
2023-05-07T06:13:23.596Z,20.70
2023-05-07T06:14:23.440Z,20.70
2023-05-07T06:15:23.455Z,24.10
2023-05-07T06:16:23.484Z,22.40
2023-05-07T06:17:23.427Z,21.30
2023-05-07T06:18:23.399Z,23.90
2023-05-07T06:19:23.393Z,21.80
2023-05-07T06:20:23.389Z,22.90
2023-05-07T06:21:23.402Z,22.20
2023-05-07T06:22:23.363Z,22.60
2023-05-07T06:23:23.348Z,23.70
2023-05-07T06:24:23.336Z,24.00
2023-05-07T06:25:23.339Z,24.90
2023-05-07T06:26:23.325Z,21.50
2023-05-07T06:27:23.301Z,20.90
2023-05-07T06:28:23.288Z,20.80
2023-05-07T06:29:23.284Z,22.40
2023-05-07T06:30:23.279Z,20.70
2023-05-07T06:31:23.358Z,20.70
2023-05-07T06:32:23.286Z,22.10
2023-05-07T06:33:23.254Z,23.50
2023-05-07T06:34:23.235Z,21.20
2023-05-07T06:35:23.226Z,24.20
2023-05-07T06:36:23.264Z,23.20
2023-05-07T06:37:23.189Z,23.60
2023-05-07T06:38:23.218Z,22.10
2023-05-07T06:39:23.172Z,21.70
2023-05-07T06:40:23.170Z,23.80
2023-05-07T06:41:23.151Z,20.60
2023-05-07T06:42:23.142Z,23.10
2023-05-07T06:43:23.128Z,22.10
2023-05-07T06:44:23.135Z,21.90
2023-05-07T06:45:23.115Z,22.70
2023-05-07T06:46:23.141Z,20.80
2023-05-07T06:47:23.097Z,21.20
2023-05-07T06:48:23.079Z,21.80
2023-05-07T06:49:23.095Z,23.20
2023-05-07T06:50:23.064Z,21.30
2023-05-07T06:51:23.038Z,21.50
2023-05-07T06:52:23.032Z,20.70
2023-05-07T06:53:23.021Z,21.90
2023-05-07T06:54:24.448Z,25.00
2023-05-07T06:55:23.004Z,23.10
2023-05-07T06:56:22.991Z,21.40
2023-05-07T06:57:22.981Z,22.90
2023-05-07T06:58:23.002Z,20.60
2023-05-07T06:59:22.963Z,23.90
2023-05-07T07:00:22.941Z,22.40
2023-05-07T07:01:22.972Z,20.20
2023-05-07T07:02:22.989Z,20.30
2023-05-07T07:03:22.920Z,21.00
2023-05-07T07:04:22.966Z,21.70
2023-05-07T07:05:22.898Z,22.60
2023-05-07T07:06:22.890Z,24.80
2023-05-07T07:07:22.868Z,22.40
2023-05-07T07:08:22.865Z,21.70
2023-05-07T07:09:23.997Z,21.20
2023-05-07T07:10:22.834Z,22.50
2023-05-07T07:11:22.816Z,22.50
2023-05-07T07:12:22.814Z,20.80
2023-05-07T07:13:22.858Z,20.70
2023-05-07T07:14:22.791Z,22.30
2023-05-07T07:15:22.774Z,22.20
2023-05-07T07:16:22.925Z,24.40
2023-05-07T07:17:22.827Z,20.70
2023-05-07T07:18:22.747Z,20.00
2023-05-07T07:19:22.742Z,20.50
2023-05-07T07:20:22.727Z,24.40
2023-05-07T07:21:22.708Z,21.40
2023-05-07T07:22:22.697Z,23.00
2023-05-07T07:23:22.688Z,22.30
2023-05-07T07:24:22.765Z,21.70
2023-05-07T07:25:22.666Z,22.00
2023-05-07T07:26:22.659Z,21.20
2023-05-07T07:27:22.657Z,20.80
2023-05-07T07:28:22.635Z,21.40
2023-05-07T07:29:22.619Z,23.60
2023-05-07T07:30:22.646Z,23.30
2023-05-07T07:31:22.725Z,22.40
2023-05-07T07:32:22.589Z,20.60
2023-05-07T07:33:22.575Z,21.10
2023-05-07T07:34:22.569Z,23.80
2023-05-07T07:35:22.547Z,21.60
2023-05-07T07:36:23.827Z,21.50
2023-05-07T07:37:22.539Z,20.70
2023-05-07T07:38:22.514Z,22.20
2023-05-07T07:39:22.514Z,23.40
2023-05-07T07:40:22.494Z,21.80
2023-05-07T07:41:22.503Z,23.80
2023-05-07T07:42:22.471Z,21.60
2023-05-07T07:43:22.463Z,21.30
2023-05-07T07:44:22.447Z,20.20
2023-05-07T07:45:22.453Z,21.30
2023-05-07T07:46:22.490Z,23.60
2023-05-07T07:47:22.479Z,22.70
2023-05-07T07:48:22.398Z,23.90
2023-05-07T07:49:22.409Z,21.60
2023-05-07T07:50:36.128Z,22.10
2023-05-07T07:51:22.378Z,21.50
2023-05-07T07:52:22.356Z,21.00
2023-05-07T07:53:22.364Z,20.10
2023-05-07T07:54:22.366Z,22.30
2023-05-07T07:55:22.339Z,21.40
2023-05-07T07:56:22.314Z,20.70
2023-05-07T07:57:22.307Z,19.60
2023-05-07T07:58:22.344Z,21.40
2023-05-07T07:59:22.298Z,20.90
2023-05-07T08:00:22.358Z,21.30
2023-05-07T08:01:22.260Z,21.40
2023-05-07T08:02:22.271Z,22.00
2023-05-07T08:03:22.283Z,20.50
2023-05-07T08:04:22.350Z,21.10
2023-05-07T08:05:22.225Z,18.70
2023-05-07T08:06:22.258Z,18.10
2023-05-07T08:07:22.196Z,19.10
2023-05-07T08:08:22.192Z,19.30
2023-05-07T08:09:22.223Z,22.60
2023-05-07T08:10:22.286Z,18.60
2023-05-07T08:11:22.154Z,19.00
2023-05-07T08:12:22.136Z,20.10
2023-05-07T08:13:22.277Z,20.10
2023-05-07T08:14:22.121Z,18.50
2023-05-07T08:15:22.123Z,19.80
2023-05-07T08:16:22.977Z,19.10
2023-05-07T08:17:22.140Z,18.60
2023-05-07T08:18:22.084Z,19.50
2023-05-07T08:19:22.077Z,18.40
2023-05-07T08:20:22.074Z,18.50
2023-05-07T08:21:22.043Z,17.90
2023-05-07T08:22:22.029Z,17.70
2023-05-07T08:23:22.034Z,21.00
2023-05-07T08:24:22.017Z,20.50
2023-05-07T08:25:22.017Z,17.90
2023-05-07T08:26:21.983Z,19.10
2023-05-07T08:27:21.983Z,20.20
2023-05-07T08:28:21.981Z,18.70
2023-05-07T08:29:21.965Z,19.20
2023-05-07T08:30:21.941Z,19.20
2023-05-07T08:31:21.994Z,19.80
2023-05-07T08:32:21.949Z,18.30
2023-05-07T08:33:21.926Z,19.70
2023-05-07T08:34:21.923Z,18.50
2023-05-07T08:35:21.894Z,19.40
2023-05-07T08:36:21.912Z,17.90
2023-05-07T08:37:21.887Z,19.40
2023-05-07T08:38:21.867Z,20.50
2023-05-07T08:39:21.851Z,19.10
2023-05-07T08:40:21.878Z,18.20
2023-05-07T08:41:21.912Z,18.10
2023-05-07T08:42:21.819Z,17.60
2023-05-07T08:43:21.823Z,18.80
2023-05-07T08:44:21.785Z,21.00
2023-05-07T08:45:21.782Z,17.70
2023-05-07T08:46:21.812Z,17.70
2023-05-07T08:47:22.328Z,19.50
2023-05-07T08:48:21.739Z,19.10
2023-05-07T08:49:21.734Z,19.30
2023-05-07T08:50:21.718Z,18.70
2023-05-07T08:51:21.718Z,18.40
2023-05-07T08:52:21.708Z,18.60
2023-05-07T08:53:21.770Z,17.90
2023-05-07T08:54:21.682Z,17.60
2023-05-07T08:55:22.050Z,20.20
2023-05-07T08:56:22.669Z,18.00
2023-05-07T08:57:21.662Z,17.70
2023-05-07T08:58:21.624Z,17.10
2023-05-07T08:59:21.627Z,20.50
2023-05-07T09:00:21.659Z,18.40
2023-05-07T09:01:21.649Z,17.30
2023-05-07T09:02:21.655Z,20.00
2023-05-07T09:03:21.683Z,16.80
2023-05-07T09:04:21.556Z,18.10
2023-05-07T09:05:21.590Z,17.40
2023-05-07T09:06:21.544Z,18.20
2023-05-07T09:07:21.537Z,17.40
2023-05-07T09:08:21.514Z,19.00
2023-05-07T09:09:21.539Z,17.50
2023-05-07T09:10:21.507Z,17.10
2023-05-07T09:11:21.490Z,17.60
2023-05-07T09:12:21.477Z,17.90
2023-05-07T09:13:21.521Z,17.80
2023-05-07T09:14:21.474Z,17.20
2023-05-07T09:15:21.464Z,17.50
2023-05-07T09:16:21.451Z,17.10
2023-05-07T09:17:21.456Z,18.30
2023-05-07T09:18:21.414Z,18.20
2023-05-07T09:19:21.413Z,17.00
2023-05-07T09:20:21.395Z,16.20
2023-05-07T09:21:21.378Z,18.90
2023-05-07T09:22:21.365Z,17.40
2023-05-07T09:23:21.369Z,17.90
2023-05-07T09:24:21.350Z,16.80
2023-05-07T09:25:21.340Z,16.90
2023-05-07T09:26:21.318Z,16.90
2023-05-07T09:27:21.318Z,16.60
2023-05-07T09:28:21.355Z,18.60
2023-05-07T09:29:21.297Z,15.70
2023-05-07T09:30:21.271Z,16.40
2023-05-07T09:31:21.767Z,17.70
2023-05-07T09:32:21.312Z,15.00
2023-05-07T09:33:21.251Z,16.60
2023-05-07T09:34:21.235Z,15.80
2023-05-07T09:35:21.221Z,17.70
2023-05-07T09:36:21.213Z,15.30
2023-05-07T09:37:21.209Z,17.20
2023-05-07T09:38:21.210Z,16.20
2023-05-07T09:39:21.175Z,15.80
2023-05-07T09:40:21.195Z,15.90
2023-05-07T09:41:21.160Z,16.40
2023-05-07T09:42:21.167Z,15.00
2023-05-07T09:43:21.132Z,15.80
2023-05-07T09:44:21.124Z,16.20
2023-05-07T09:45:21.111Z,14.60
2023-05-07T09:46:21.152Z,15.70
2023-05-07T09:47:21.139Z,15.70
2023-05-07T09:48:21.098Z,17.00
2023-05-07T09:49:21.092Z,17.00
2023-05-07T09:50:21.058Z,15.20
2023-05-07T09:51:21.058Z,15.60
2023-05-07T09:52:21.047Z,15.00
2023-05-07T09:53:21.018Z,16.80
2023-05-07T09:54:21.017Z,15.00
2023-05-07T09:55:20.999Z,15.40
2023-05-07T09:56:21.002Z,14.90
2023-05-07T09:57:21.003Z,14.90
2023-05-07T09:58:20.966Z,16.30
2023-05-07T09:59:20.950Z,16.50
2023-05-07T10:00:20.945Z,14.40
2023-05-07T10:01:20.942Z,15.30
2023-05-07T10:02:20.963Z,15.60
2023-05-07T10:03:21.006Z,14.80
2023-05-07T10:04:20.909Z,15.30
2023-05-07T10:05:20.898Z,15.00
2023-05-07T10:06:20.892Z,14.70
2023-05-07T10:07:20.859Z,13.90
2023-05-07T10:08:20.856Z,14.50
2023-05-07T10:09:20.836Z,15.00
2023-05-07T10:10:20.844Z,14.60
2023-05-07T10:11:20.815Z,14.40
2023-05-07T10:12:20.809Z,13.90
2023-05-07T10:13:20.932Z,14.80
2023-05-07T10:14:20.788Z,14.90
2023-05-07T10:15:20.784Z,15.30
2023-05-07T10:16:20.765Z,15.00
2023-05-07T10:17:20.813Z,14.60
2023-05-07T10:18:20.945Z,13.80
2023-05-07T10:19:20.737Z,13.80
2023-05-07T10:20:20.737Z,13.70
2023-05-07T10:21:20.705Z,13.80
2023-05-07T10:22:20.696Z,14.70
2023-05-07T10:23:20.680Z,14.10
2023-05-07T10:24:20.686Z,14.50
2023-05-07T10:25:20.672Z,13.70
2023-05-07T10:26:20.655Z,13.20
2023-05-07T10:27:20.644Z,14.20
2023-05-07T10:28:20.634Z,12.80
2023-05-07T10:29:20.628Z,12.60
2023-05-07T10:30:20.612Z,12.70
2023-05-07T10:31:20.616Z,13.30
2023-05-07T10:32:20.608Z,12.80
2023-05-07T10:33:20.585Z,14.10
2023-05-07T10:34:20.580Z,12.50
2023-05-07T10:35:20.551Z,13.10
2023-05-07T10:36:20.567Z,12.30
2023-05-07T10:37:20.541Z,13.50
2023-05-07T10:38:20.544Z,12.40
2023-05-07T10:39:20.529Z,13.60
2023-05-07T10:40:20.508Z,12.30
2023-05-07T10:41:20.492Z,12.70
2023-05-07T10:42:20.484Z,12.90
2023-05-07T10:43:20.477Z,12.50
2023-05-07T10:44:20.461Z,12.70
2023-05-07T10:45:20.449Z,14.00
2023-05-07T10:46:20.547Z,12.30
2023-05-07T10:47:20.467Z,11.80
2023-05-07T10:49:21.396Z,12.00
2023-05-07T10:50:20.419Z,11.50
2023-05-07T10:51:20.394Z,11.70
2023-05-07T10:52:20.384Z,12.90
2023-05-07T10:53:20.358Z,11.60
2023-05-07T10:54:20.356Z,12.20
2023-05-07T10:55:20.341Z,12.90
2023-05-07T10:56:20.331Z,11.90
2023-05-07T10:57:20.331Z,11.70
2023-05-07T10:58:31.411Z,11.70
2023-05-07T10:59:20.290Z,11.10
2023-05-07T11:00:31.476Z,11.60
2023-05-07T11:01:20.305Z,12.50
2023-05-07T11:02:20.304Z,11.90
2023-05-07T11:03:20.252Z,11.70
2023-05-07T11:04:20.247Z,11.50
2023-05-07T11:05:20.340Z,11.80
2023-05-07T11:06:20.226Z,11.80
2023-05-07T11:07:20.216Z,11.80
2023-05-07T11:08:20.199Z,11.20
2023-05-07T11:09:20.184Z,11.40
2023-05-07T11:10:20.168Z,12.00
2023-05-07T11:11:20.165Z,12.20
2023-05-07T11:12:20.153Z,11.90
2023-05-07T11:13:20.221Z,11.80
2023-05-07T11:14:20.132Z,11.60
2023-05-07T11:15:20.203Z,11.10
2023-05-07T11:16:20.187Z,11.50
2023-05-07T11:17:20.104Z,12.50
2023-05-07T11:18:20.090Z,11.80
2023-05-07T11:19:20.073Z,11.20
2023-05-07T11:20:20.074Z,11.40
2023-05-07T11:21:20.046Z,11.40
2023-05-07T11:22:20.041Z,11.60
2023-05-07T11:23:20.035Z,10.90
2023-05-07T11:24:20.026Z,11.00
2023-05-07T11:25:20.011Z,14.30
2023-05-07T11:26:20.070Z,10.50
2023-05-07T11:27:19.986Z,10.90
2023-05-07T11:28:19.983Z,10.80
2023-05-07T11:29:22.295Z,10.50
2023-05-07T11:30:19.968Z,10.60
2023-05-07T11:31:19.975Z,11.30
2023-05-07T11:32:19.924Z,10.70
2023-05-07T11:33:19.930Z,10.80
2023-05-07T11:34:19.923Z,10.70
2023-05-07T11:35:19.908Z,10.60
2023-05-07T11:36:19.875Z,9.90
2023-05-07T11:37:19.880Z,11.50
2023-05-07T11:38:19.862Z,10.20
2023-05-07T11:39:19.869Z,10.10
2023-05-07T11:40:19.837Z,11.00
2023-05-07T11:41:19.831Z,10.30
2023-05-07T11:42:19.816Z,10.20
2023-05-07T11:43:19.807Z,9.50
2023-05-07T11:44:19.805Z,10.90
2023-05-07T11:45:19.796Z,8.90
2023-05-07T11:46:19.806Z,9.50
2023-05-07T11:47:19.912Z,11.40
2023-05-07T11:48:19.759Z,9.90
2023-05-07T11:49:19.752Z,11.20
2023-05-07T11:50:19.729Z,10.10
2023-05-07T11:51:19.726Z,10.10
2023-05-07T11:52:19.707Z,9.30
2023-05-07T11:53:19.717Z,11.50
2023-05-07T11:54:19.694Z,9.90
2023-05-07T11:55:19.678Z,10.10
2023-05-07T11:56:19.674Z,11.20
2023-05-07T11:57:19.656Z,10.80
2023-05-07T11:58:19.650Z,9.90
2023-05-07T11:59:19.638Z,10.20
2023-05-07T12:00:19.620Z,10.40
2023-05-07T12:01:19.684Z,10.20
2023-05-07T12:02:19.632Z,10.70
2023-05-07T12:03:19.696Z,10.00
2023-05-07T12:04:19.678Z,9.50
2023-05-07T12:05:19.575Z,8.70
2023-05-07T12:06:19.556Z,8.90
2023-05-07T12:07:19.567Z,9.50
2023-05-07T12:08:19.540Z,8.80
2023-05-07T12:09:19.524Z,8.70
2023-05-07T12:10:19.515Z,9.40
2023-05-07T12:11:19.516Z,8.90
2023-05-07T12:12:19.505Z,9.30
2023-05-07T12:13:19.531Z,9.50
2023-05-07T12:14:19.476Z,9.10
2023-05-07T12:15:19.469Z,9.00
2023-05-07T12:16:19.471Z,9.50
2023-05-07T12:17:19.493Z,9.10
2023-05-07T12:18:19.421Z,10.10
2023-05-07T12:19:19.417Z,10.70
2023-05-07T12:20:19.411Z,10.20
2023-05-07T12:21:19.401Z,11.00
2023-05-07T12:22:19.394Z,10.50
2023-05-07T12:23:19.367Z,9.80
2023-05-07T12:24:22.040Z,9.10
2023-05-07T12:25:19.376Z,9.00
2023-05-07T12:26:19.341Z,9.50
2023-05-07T12:27:19.335Z,8.50
2023-05-07T12:28:19.309Z,8.60
2023-05-07T12:29:19.319Z,9.20
2023-05-07T12:30:19.311Z,10.10
2023-05-07T12:31:19.336Z,9.40
2023-05-07T12:32:19.271Z,9.60
2023-05-07T12:33:19.261Z,9.90
2023-05-07T12:34:19.263Z,10.00
2023-05-07T12:35:19.251Z,10.70
2023-05-07T12:36:19.258Z,9.50
2023-05-07T12:37:19.219Z,9.60
2023-05-07T12:38:19.222Z,10.40
2023-05-07T12:39:19.190Z,9.60
2023-05-07T12:40:19.202Z,10.40
2023-05-07T12:41:19.184Z,10.40
2023-05-07T12:42:19.169Z,11.20
2023-05-07T12:43:19.159Z,9.10
2023-05-07T12:44:19.145Z,10.30
2023-05-07T12:45:19.145Z,8.50
2023-05-07T12:46:19.166Z,9.70
2023-05-07T12:47:19.105Z,9.90
2023-05-07T12:48:19.101Z,8.60
2023-05-07T12:49:19.096Z,8.60
2023-05-07T12:50:19.093Z,8.40
2023-05-07T12:51:19.067Z,7.60
2023-05-07T12:52:19.054Z,7.40
2023-05-07T12:53:19.042Z,8.70
2023-05-07T12:54:19.048Z,8.50
2023-05-07T12:55:19.048Z,8.30
2023-05-07T12:56:19.019Z,8.40